Terminal Aerodrome Forecast
Issued by NWS

Home | Current Version | Previous Version | Text Only | Print | Product List | Glossary On
Versions: 1 2 3 4 5 6 7 8 9 10 11 12 13 14 15 16
000
FTUS43 KMQT 202300
TAFCMX
TAF
KCMX 202338Z 2100/2124 VRB03KT P6SM SKC
     FM210700 09003KT 2SM BR SCT005
     FM211400 14006KT P6SM SCT100
     FM211800 29012KT P6SM SCT100=

USA.gov is the U.S. government's official web portal to all federal, state and local government web resources and services.